Time;durP1;ratioP1;P1;durP2;ratioP2;P2;SDS_P1;SDS_P2;PMS_P1;PMS_P2;Temp;Humidity;BMP_temperature;BMP_pressure;BME280_temperature;BME280_humidity;BME280_pressure;Samples;Min_cycle;Max_cycle;Signal;HPM_P1;HPM_P2
2021/08/19 00:02:12;;;;;;;11.88;2.67;;;19.20;83.60;;;;;;5011868;28;20037;-75
2021/08/19 00:04:41;;;;;;;10.73;3.63;;;19.30;83.70;;;;;;5012545;28;20036;-75
2021/08/19 00:07:07;;;;;;;3.33;2.00;;;19.30;84.00;;;;;;5014051;28;20036;-74
2021/08/19 00:09:36;;;;;;;7.05;2.53;;;19.20;83.60;;;;;;5012908;28;20370;-75
2021/08/19 00:12:08;;;;;;;5.88;2.60;;;19.20;83.70;;;;;;5002335;28;20504;-75
2021/08/19 00:14:35;;;;;;;5.57;3.63;;;19.10;84.30;;;;;;5014564;28;20046;-75
2021/08/19 00:17:01;;;;;;;3.42;2.42;;;19.10;83.80;;;;;;5014081;28;20425;-74
2021/08/19 00:19:34;;;;;;;3.20;1.83;;;19.20;83.70;;;;;;5013799;28;20022;-74
2021/08/19 00:22:04;;;;;;;10.45;3.35;;;19.20;83.70;;;;;;5001428;28;20035;-75
2021/08/19 00:24:30;;;;;;;3.75;2.33;;;19.10;83.80;;;;;;4999885;28;20057;-74
2021/08/19 00:26:55;;;;;;;6.38;2.13;;;19.20;83.80;;;;;;5003136;28;20038;-75
2021/08/19 00:29:21;;;;;;;5.15;2.30;;;19.10;83.70;;;;;;5026462;28;20053;-75
2021/08/19 00:31:47;;;;;;;6.60;2.15;;;19.10;83.80;;;;;;5013132;28;20080;-74
2021/08/19 00:34:12;;;;;;;5.82;3.58;;;19.10;83.90;;;;;;5013224;28;20037;-74
2021/08/19 00:36:39;;;;;;;1.95;1.63;;;19.10;84.10;;;;;;5000452;28;20204;-75
2021/08/19 00:39:08;;;;;;;4.68;2.05;;;19.10;84.00;;;;;;5012748;28;20030;-74
2021/08/19 00:41:37;;;;;;;8.52;2.75;;;19.00;84.00;;;;;;5013798;28;20033;-74
2021/08/19 00:44:06;;;;;;;7.60;2.95;;;19.00;84.10;;;;;;5010999;28;20042;-75
2021/08/19 00:46:35;;;;;;;6.50;2.78;;;19.00;84.20;;;;;;5013641;28;20029;-75
2021/08/19 00:49:14;;;;;;;5.32;3.00;;;19.00;84.20;;;;;;5013345;28;20025;-75
2021/08/19 00:51:40;;;;;;;4.25;2.22;;;19.00;84.30;;;;;;5010353;28;20036;-75
2021/08/19 00:54:09;;;;;;;7.90;2.28;;;19.00;84.10;;;;;;4994808;28;20101;-75
2021/08/19 00:56:36;;;;;;;4.03;2.08;;;19.00;84.20;;;;;;5006321;28;20034;-75
2021/08/19 00:59:06;;;;;;;7.15;2.47;;;19.00;84.00;;;;;;5002347;28;20033;-75
2021/08/19 01:01:33;;;;;;;6.68;2.22;;;19.00;84.00;;;;;;5012867;28;20398;-75
2021/08/19 01:03:59;;;;;;;5.45;2.70;;;19.00;84.00;;;;;;5013986;28;20030;-75
2021/08/19 01:06:26;;;;;;;4.53;1.75;;;19.00;83.90;;;;;;5011999;28;20105;-75
2021/08/19 01:08:52;;;;;;;5.68;2.35;;;19.00;83.90;;;;;;5011304;28;20029;-75
2021/08/19 01:11:19;;;;;;;6.65;3.72;;;19.00;83.80;;;;;;5002229;28;20060;-75
2021/08/19 01:13:46;;;;;;;8.30;3.10;;;19.00;83.80;;;;;;5009758;28;20030;-75
2021/08/19 01:16:11;;;;;;;4.25;2.10;;;19.00;83.70;;;;;;5012135;28;20037;-75
2021/08/19 01:18:39;;;;;;;9.10;2.90;;;19.00;83.60;;;;;;5012929;28;20096;-75
2021/08/19 01:21:05;;;;;;;7.03;3.20;;;19.00;83.70;;;;;;5006409;28;20386;-75
2021/08/19 01:23:31;;;;;;;4.85;2.58;;;19.00;83.70;;;;;;5005284;28;20034;-74
2021/08/19 01:25:58;;;;;;;7.82;3.25;;;19.00;83.50;;;;;;5010364;28;20370;-75
2021/08/19 01:28:23;;;;;;;4.68;1.95;;;19.00;83.60;;;;;;5004701;28;20042;-75
2021/08/19 01:30:49;;;;;;;8.80;3.63;;;19.00;83.40;;;;;;5001937;28;20157;-75
2021/08/19 01:33:14;;;;;;;7.47;2.65;;;18.90;83.50;;;;;;5000422;28;20030;-75
2021/08/19 01:35:40;;;;;;;6.47;2.38;;;19.00;83.50;;;;;;5013098;28;20041;-75
2021/08/19 01:38:06;;;;;;;8.77;2.78;;;19.00;83.50;;;;;;5008755;28;20034;-75
2021/08/19 01:40:31;;;;;;;6.03;2.67;;;19.00;83.50;;;;;;5002293;28;20079;-75
2021/08/19 01:43:09;;;;;;;12.23;2.92;;;18.90;83.50;;;;;;5011432;28;20026;-74
2021/08/19 01:45:35;;;;;;;9.13;3.05;;;19.00;83.70;;;;;;4999433;28;20109;-75
2021/08/19 01:48:00;;;;;;;9.05;3.15;;;18.90;83.60;;;;;;5010737;28;20160;-75
2021/08/19 01:50:26;;;;;;;8.15;3.20;;;19.00;83.60;;;;;;5002818;28;20117;-75
2021/08/19 01:52:52;;;;;;;4.15;2.20;;;18.90;83.50;;;;;;5007848;28;20481;-75
2021/08/19 01:55:17;;;;;;;7.20;2.28;;;19.00;83.40;;;;;;5011776;28;20034;-75
2021/08/19 01:57:44;;;;;;;7.30;3.15;;;19.00;83.30;;;;;;5012205;28;20049;-75
2021/08/19 02:00:10;;;;;;;6.65;2.30;;;19.00;83.30;;;;;;5010752;28;20488;-75
2021/08/19 02:02:35;;;;;;;10.10;3.53;;;18.90;83.80;;;;;;5011805;28;20104;-75
2021/08/19 02:05:01;;;;;;;9.02;2.88;;;19.00;83.50;;;;;;5009858;28;20392;-75
2021/08/19 02:07:27;;;;;;;6.13;3.08;;;18.90;83.30;;;;;;5012286;28;20572;-75
2021/08/19 02:09:55;;;;;;;5.85;2.90;;;18.90;83.30;;;;;;5010779;28;20026;-75
2021/08/19 02:12:21;;;;;;;6.80;3.40;;;18.90;83.30;;;;;;5012302;28;20481;-75
2021/08/19 02:14:47;;;;;;;8.32;3.10;;;18.90;83.40;;;;;;5011395;28;20117;-75
2021/08/19 02:17:12;;;;;;;15.88;3.13;;;18.90;83.40;;;;;;5009638;28;20052;-75
2021/08/19 02:19:38;;;;;;;6.38;3.00;;;19.00;83.40;;;;;;5012551;28;20033;-75
2021/08/19 02:22:03;;;;;;;6.00;2.95;;;18.90;83.30;;;;;;4997336;28;20482;-75
2021/08/19 02:24:29;;;;;;;6.40;3.58;;;18.90;83.20;;;;;;5010585;28;20046;-75
2021/08/19 02:26:55;;;;;;;5.22;3.13;;;18.90;83.40;;;;;;5012121;28;20038;-75
2021/08/19 02:29:20;;;;;;;9.50;3.10;;;18.90;83.40;;;;;;5007377;28;20850;-74
2021/08/19 02:31:46;;;;;;;8.00;3.58;;;18.90;83.30;;;;;;5002232;28;20026;-75
2021/08/19 02:34:12;;;;;;;10.13;3.30;;;18.90;83.60;;;;;;4996649;28;20027;-75
2021/08/19 02:36:37;;;;;;;5.82;3.25;;;18.80;83.60;;;;;;4999165;28;20037;-74
2021/08/19 02:39:05;;;;;;;7.10;3.40;;;18.90;83.60;;;;;;5011855;28;20034;-75
2021/08/19 02:41:31;;;;;;;6.30;3.25;;;18.90;83.60;;;;;;5007681;28;20558;-75
2021/08/19 02:43:57;;;;;;;4.28;2.47;;;18.80;83.60;;;;;;5002052;28;20432;-74
2021/08/19 02:46:22;;;;;;;7.40;3.78;;;18.80;83.40;;;;;;4998732;28;20030;-75
2021/08/19 02:48:48;;;;;;;6.93;3.47;;;18.90;83.90;;;;;;5010459;28;20122;-75
2021/08/19 02:51:14;;;;;;;4.57;2.55;;;18.80;83.70;;;;;;5010649;28;20065;-75
2021/08/19 02:53:39;;;;;;;10.68;4.18;;;18.80;84.20;;;;;;5011928;28;20026;-75
2021/08/19 02:56:06;;;;;;;8.02;2.92;;;18.80;83.90;;;;;;5006577;28;20128;-74
2021/08/19 02:58:32;;;;;;;9.60;4.07;;;18.80;83.70;;;;;;5004235;28;20537;-75
2021/08/19 03:00:58;;;;;;;9.98;4.13;;;18.80;84.00;;;;;;5010090;28;20109;-75
2021/08/19 03:03:23;;;;;;;9.65;4.88;;;18.90;84.10;;;;;;5011318;28;20477;-75
2021/08/19 03:05:49;;;;;;;9.57;4.32;;;18.80;84.10;;;;;;5010026;28;20026;-75
2021/08/19 03:08:15;;;;;;;5.70;3.47;;;18.90;84.10;;;;;;5010547;28;20117;-75
2021/08/19 03:10:40;;;;;;;11.63;4.78;;;18.80;83.90;;;;;;5007781;28;20046;-75
2021/08/19 03:13:06;;;;;;;10.32;4.88;;;18.80;84.10;;;;;;5004086;28;20117;-74
2021/08/19 03:15:31;;;;;;;8.38;4.45;;;18.80;84.10;;;;;;5008038;28;20033;-75
2021/08/19 03:17:57;;;;;;;9.20;4.70;;;18.80;84.10;;;;;;5011108;28;20121;-75
2021/08/19 03:20:24;;;;;;;7.15;4.38;;;18.90;84.20;;;;;;5011508;28;20076;-75
2021/08/19 03:22:51;;;;;;;13.23;4.72;;;18.90;84.20;;;;;;5014986;28;20080;-75
2021/08/19 03:25:17;;;;;;;8.43;3.97;;;18.80;84.20;;;;;;5015238;28;20505;-75
2021/08/19 03:27:43;;;;;;;11.40;4.13;;;18.80;84.00;;;;;;5009469;28;20057;-75
2021/08/19 03:30:12;;;;;;;10.00;4.82;;;18.80;84.00;;;;;;5007170;28;20026;-75
2021/08/19 03:32:40;;;;;;;9.40;3.55;;;18.80;84.20;;;;;;5012130;28;20034;-75
2021/08/19 03:35:06;;;;;;;8.98;4.85;;;18.80;83.90;;;;;;5015154;28;20033;-75
2021/08/19 03:37:32;;;;;;;6.38;3.55;;;18.80;84.30;;;;;;5013984;28;20063;-75
2021/08/19 03:39:58;;;;;;;14.98;4.30;;;18.90;84.40;;;;;;5004016;28;20459;-75
2021/08/19 03:42:24;;;;;;;8.38;4.97;;;18.80;84.40;;;;;;5014922;28;20038;-75
2021/08/19 03:44:49;;;;;;;10.73;5.30;;;18.80;84.80;;;;;;5007726;28;20019;-75
2021/08/19 03:47:15;;;;;;;8.57;5.10;;;18.70;84.80;;;;;;5007249;28;20045;-75
2021/08/19 03:49:41;;;;;;;10.00;4.70;;;18.80;85.00;;;;;;5014103;28;20108;-75
2021/08/19 03:52:07;;;;;;;6.38;4.15;;;18.80;85.10;;;;;;5014971;28;20056;-75
2021/08/19 03:54:33;;;;;;;6.72;3.70;;;18.80;84.90;;;;;;5012007;28;20040;-75
2021/08/19 03:56:59;;;;;;;7.72;3.42;;;18.70;84.80;;;;;;5014385;28;20088;-76
2021/08/19 03:59:24;;;;;;;7.68;4.70;;;18.70;84.80;;;;;;5013029;28;20466;-75
2021/08/19 04:01:53;;;;;;;9.18;5.13;;;18.70;85.70;;;;;;5014005;28;20041;-75
2021/08/19 04:04:18;;;;;;;11.18;5.50;;;18.70;85.30;;;;;;5014306;28;20030;-75
2021/08/19 04:06:44;;;;;;;7.93;4.95;;;18.70;85.40;;;;;;5012619;28;20088;-75
2021/08/19 04:09:10;;;;;;;6.55;4.22;;;18.70;85.30;;;;;;5012808;28;20045;-75
2021/08/19 04:11:35;;;;;;;17.40;5.47;;;18.70;85.20;;;;;;5013409;28;20056;-75
2021/08/19 04:14:01;;;;;;;10.00;5.13;;;18.70;85.40;;;;;;5012480;28;20028;-75
2021/08/19 04:16:26;;;;;;;10.10;5.00;;;18.80;85.50;;;;;;5013022;28;20042;-75
2021/08/19 04:18:52;;;;;;;9.77;5.30;;;18.80;85.50;;;;;;5000780;28;20037;-75
2021/08/19 04:21:18;;;;;;;8.48;4.57;;;18.70;85.40;;;;;;5014072;28;20125;-75
2021/08/19 04:23:45;;;;;;;16.25;5.65;;;18.70;85.10;;;;;;5014017;28;20040;-75
2021/08/19 04:26:11;;;;;;;9.50;4.68;;;18.80;85.20;;;;;;5013718;28;20068;-75
2021/08/19 04:28:37;;;;;;;10.35;5.22;;;18.80;85.20;;;;;;5013314;28;20425;-75
2021/08/19 04:31:03;;;;;;;9.85;4.22;;;18.80;85.30;;;;;;5001235;28;20084;-75
2021/08/19 04:33:29;;;;;;;9.07;3.65;;;18.70;85.20;;;;;;5014342;28;20049;-76
2021/08/19 04:35:55;;;;;;;8.98;5.07;;;18.70;85.10;;;;;;5011490;28;20474;-75
2021/08/19 04:38:21;;;;;;;7.35;4.45;;;18.70;85.40;;;;;;5013860;28;20033;-74
2021/08/19 04:40:47;;;;;;;10.80;4.90;;;18.70;85.40;;;;;;5013854;28;20362;-75
2021/08/19 04:43:12;;;;;;;10.77;4.72;;;18.70;85.50;;;;;;5001652;28;20117;-75
2021/08/19 04:45:38;;;;;;;9.60;5.20;;;18.70;85.70;;;;;;5003633;28;20148;-75
2021/08/19 04:48:04;;;;;;;10.38;5.35;;;18.70;85.50;;;;;;5008486;28;20456;-75
2021/08/19 04:50:33;;;;;;;7.65;5.15;;;18.70;85.70;;;;;;5012555;28;20121;-75
2021/08/19 04:53:01;;;;;;;14.75;5.18;;;18.70;85.80;;;;;;5012304;28;20104;-74
2021/08/19 04:55:27;;;;;;;13.57;6.25;;;18.70;85.80;;;;;;5013581;28;20030;-74
2021/08/19 04:57:52;;;;;;;17.38;6.05;;;18.70;86.10;;;;;;5004683;28;20478;-75
2021/08/19 05:00:18;;;;;;;13.30;6.55;;;18.80;86.30;;;;;;5009229;28;20025;-75
2021/08/19 05:02:44;;;;;;;10.68;6.20;;;18.80;86.20;;;;;;5009024;28;20482;-75
2021/08/19 05:05:10;;;;;;;11.90;5.82;;;18.80;86.30;;;;;;5012173;28;20029;-75
2021/08/19 05:07:35;;;;;;;10.48;6.00;;;18.80;86.20;;;;;;5012635;28;20034;-75
2021/08/19 05:10:01;;;;;;;10.55;6.85;;;18.90;86.40;;;;;;5012804;28;20037;-75
2021/08/19 05:12:27;;;;;;;10.20;6.68;;;18.90;86.40;;;;;;5007607;28;20034;-74
2021/08/19 05:14:55;;;;;;;11.48;6.15;;;18.90;86.10;;;;;;4999190;28;20489;-75
2021/08/19 05:17:21;;;;;;;15.00;7.30;;;18.90;86.00;;;;;;5009976;28;20069;-75
2021/08/19 05:19:46;;;;;;;18.15;6.88;;;18.90;86.00;;;;;;5012446;28;20025;-75
2021/08/19 05:22:12;;;;;;;12.60;6.50;;;18.90;86.40;;;;;;5011688;28;20214;-75
2021/08/19 05:24:38;;;;;;;17.67;7.50;;;18.90;86.00;;;;;;5012308;28;20177;-75
2021/08/19 05:27:04;;;;;;;15.77;6.70;;;19.00;86.40;;;;;;5011498;28;20388;-75
2021/08/19 05:29:29;;;;;;;15.02;8.00;;;19.00;86.10;;;;;;5012681;28;20025;-75
2021/08/19 05:31:55;;;;;;;10.65;7.50;;;18.90;86.40;;;;;;5011459;28;20420;-75
2021/08/19 05:34:20;;;;;;;13.60;8.15;;;19.00;86.30;;;;;;5010805;28;20026;-75
2021/08/19 05:36:46;;;;;;;14.13;8.38;;;18.90;86.20;;;;;;5013128;28;20037;-75
2021/08/19 05:39:12;;;;;;;15.60;7.85;;;19.00;86.40;;;;;;5010695;28;20034;-75
2021/08/19 05:41:37;;;;;;;13.80;7.60;;;19.00;86.30;;;;;;5008473;28;20080;-77
2021/08/19 05:44:03;;;;;;;28.33;7.18;;;19.00;86.20;;;;;;5009696;28;20060;-75
2021/08/19 05:46:29;;;;;;;15.55;8.23;;;19.00;86.10;;;;;;4996799;28;20069;-75
2021/08/19 05:48:55;;;;;;;14.85;5.72;;;19.00;86.50;;;;;;5002139;28;20049;-75
2021/08/19 05:51:23;;;;;;;12.95;8.20;;;19.00;85.80;;;;;;5005296;28;20524;-75
2021/08/19 05:53:49;;;;;;;17.50;9.40;;;19.00;86.40;;;;;;4996185;28;20106;-75
2021/08/19 05:56:14;;;;;;;16.63;9.02;;;19.00;86.60;;;;;;5001424;28;20128;-76
2021/08/19 05:58:40;;;;;;;13.90;8.65;;;19.00;86.90;;;;;;5007543;28;20021;-76
2021/08/19 06:01:05;;;;;;;19.08;8.45;;;19.00;86.70;;;;;;5011831;28;20080;-76
2021/08/19 06:03:31;;;;;;;17.30;8.98;;;19.00;86.80;;;;;;5006405;28;20110;-87
2021/08/19 06:05:59;;;;;;;29.23;9.45;;;19.00;86.70;;;;;;5004746;28;20023;-87
2021/08/19 06:08:25;;;;;;;15.45;8.10;;;19.00;86.80;;;;;;5010190;28;20074;-90
2021/08/19 06:10:51;;;;;;;21.55;8.57;;;19.00;86.70;;;;;;5003073;28;20030;-83
2021/08/19 06:13:17;;;;;;;15.65;7.55;;;19.10;86.90;;;;;;5013810;28;20026;-86
2021/08/19 06:15:43;;;;;;;15.32;8.02;;;19.00;86.70;;;;;;5012753;28;20038;-84
2021/08/19 06:18:09;;;;;;;14.35;7.55;;;19.10;86.70;;;;;;5002612;28;20045;-84
2021/08/19 06:20:35;;;;;;;15.93;8.27;;;19.00;86.80;;;;;;5012957;28;20029;-86
2021/08/19 06:23:01;;;;;;;17.83;8.40;;;19.00;87.00;;;;;;5023059;28;20029;-85
2021/08/19 06:25:27;;;;;;;23.95;9.43;;;19.00;87.30;;;;;;5012589;28;20100;-84
2021/08/19 06:27:53;;;;;;;20.42;8.52;;;19.10;87.80;;;;;;5001097;28;20148;-90
2021/08/19 06:30:20;;;;;;;24.23;7.25;;;19.10;87.70;;;;;;5026861;28;20032;-88
2021/08/19 06:32:46;;;;;;;13.27;7.50;;;19.10;87.30;;;;;;5018798;28;20037;-86
2021/08/19 06:35:12;;;;;;;10.45;4.00;;;19.10;87.30;;;;;;5033315;28;20029;-90
2021/08/19 06:37:38;;;;;;;20.70;6.20;;;19.10;86.90;;;;;;5014757;28;20040;-84
2021/08/19 06:40:05;;;;;;;6.25;3.70;;;19.10;87.10;;;;;;5002532;28;20049;-84
2021/08/19 06:42:31;;;;;;;10.40;4.65;;;19.10;86.70;;;;;;5012073;28;20041;-85
2021/08/19 06:44:57;;;;;;;18.55;6.68;;;19.10;87.10;;;;;;4994529;28;20430;-87
2021/08/19 06:47:23;;;;;;;13.95;6.78;;;19.10;87.60;;;;;;5007118;28;20040;-82
2021/08/19 06:49:48;;;;;;;11.40;5.60;;;19.10;87.90;;;;;;5011063;28;20480;-83
2021/08/19 06:52:14;;;;;;;13.07;5.80;;;19.10;87.50;;;;;;5013095;28;20046;-88
2021/08/19 06:54:40;;;;;;;13.23;5.70;;;19.10;87.90;;;;;;5012759;28;20022;-82
2021/08/19 06:57:06;;;;;;;15.35;7.45;;;19.10;88.20;;;;;;5005277;28;20046;-88
2021/08/19 06:59:32;;;;;;;13.60;7.07;;;19.10;88.70;;;;;;5016430;28;20026;-86
2021/08/19 07:01:57;;;;;;;12.15;5.82;;;19.20;89.00;;;;;;5010602;28;20377;-85
2021/08/19 07:04:23;;;;;;;20.65;6.65;;;19.10;88.80;;;;;;4999106;28;20488;-86
2021/08/19 07:06:51;;;;;;;18.33;7.25;;;19.20;88.90;;;;;;5013793;28;20100;-85
2021/08/19 07:09:20;;;;;;;18.83;8.38;;;19.20;89.20;;;;;;5018176;28;20053;-83
2021/08/19 07:11:45;;;;;;;14.07;7.32;;;19.20;89.20;;;;;;5002491;28;20029;-85
2021/08/19 07:14:11;;;;;;;15.27;6.88;;;19.20;89.20;;;;;;5015909;28;20030;-86
2021/08/19 07:16:37;;;;;;;20.85;8.23;;;19.20;89.30;;;;;;5004532;28;20512;-83
2021/08/19 07:19:05;;;;;;;19.50;7.60;;;19.30;89.60;;;;;;5010683;28;20038;-86
2021/08/19 07:21:31;;;;;;;13.15;7.45;;;19.30;89.70;;;;;;5001109;28;20038;-86
2021/08/19 07:23:56;;;;;;;20.40;8.60;;;19.40;89.80;;;;;;5008006;28;20600;-86
2021/08/19 07:26:23;;;;;;;12.80;7.57;;;19.40;90.00;;;;;;5001061;28;20042;-85
2021/08/19 07:28:50;;;;;;;13.55;7.30;;;19.40;89.90;;;;;;5007264;28;20362;-86
2021/08/19 07:31:18;;;;;;;19.00;7.53;;;19.50;89.90;;;;;;5009912;28;20091;-84
2021/08/19 07:33:44;;;;;;;18.38;10.20;;;19.50;89.60;;;;;;5002413;28;20034;-92
2021/08/19 07:36:11;;;;;;;15.65;6.93;;;19.60;89.70;;;;;;5006021;28;20049;-88
2021/08/19 07:38:36;;;;;;;18.48;7.10;;;19.50;88.90;;;;;;5004914;28;20106;-82
2021/08/19 07:41:02;;;;;;;18.23;8.48;;;19.50;88.60;;;;;;5002457;28;20113;-82
2021/08/19 07:43:27;;;;;;;11.80;5.45;;;19.50;89.00;;;;;;5000046;28;20103;-82
2021/08/19 07:45:53;;;;;;;8.30;4.47;;;19.50;89.90;;;;;;5001279;28;20022;-82
2021/08/19 07:48:19;;;;;;;12.95;6.10;;;19.60;90.00;;;;;;4999615;28;20034;-81
2021/08/19 07:50:44;;;;;;;8.93;5.18;;;19.60;90.00;;;;;;4995904;28;20039;-81
2021/08/19 07:53:11;;;;;;;8.13;4.97;;;19.70;90.10;;;;;;5005528;28;20478;-83
2021/08/19 07:55:38;;;;;;;9.23;4.22;;;19.70;90.10;;;;;;5008593;28;20030;-83
2021/08/19 07:58:03;;;;;;;8.15;4.78;;;19.70;90.10;;;;;;5001279;28;20034;-82
2021/08/19 08:00:31;;;;;;;7.30;4.25;;;19.70;90.10;;;;;;4998880;28;20050;-79
2021/08/19 08:02:57;;;;;;;8.52;4.45;;;19.70;90.10;;;;;;4998706;28;20022;-77
2021/08/19 08:05:25;;;;;;;8.27;4.40;;;19.80;90.00;;;;;;5003028;28;20478;-88
2021/08/19 08:07:52;;;;;;;8.52;4.55;;;19.80;90.00;;;;;;4997614;28;20044;-82
2021/08/19 08:10:19;;;;;;;8.75;4.30;;;19.80;90.00;;;;;;4999442;28;20030;-80
2021/08/19 08:12:44;;;;;;;8.23;4.65;;;19.80;90.00;;;;;;5000961;28;20482;-79
2021/08/19 08:15:11;;;;;;;7.03;4.30;;;19.80;90.10;;;;;;5005312;28;20038;-79
2021/08/19 08:17:38;;;;;;;9.00;5.13;;;19.80;90.10;;;;;;5000179;28;20485;-81
2021/08/19 08:20:09;;;;;;;9.57;3.85;;;19.80;89.80;;;;;;5001939;28;20058;-84
2021/08/19 08:22:40;;;;;;;10.85;4.13;;;19.80;89.70;;;;;;5004590;28;20034;-81
2021/08/19 08:25:06;;;;;;;8.35;4.05;;;19.90;89.10;;;;;;4963505;28;1063913;-79
2021/08/19 08:27:32;;;;;;;7.88;4.07;;;19.90;88.60;;;;;;5004605;28;20026;-78
2021/08/19 08:29:58;;;;;;;9.20;3.90;;;19.80;88.00;;;;;;5006691;28;20054;-80
2021/08/19 08:32:23;;;;;;;12.48;4.32;;;19.80;87.70;;;;;;5007179;28;20061;-84
2021/08/19 08:34:49;;;;;;;6.65;3.63;;;19.80;88.00;;;;;;4997799;28;20036;-85
2021/08/19 08:37:15;;;;;;;8.32;3.88;;;19.80;87.90;;;;;;5001746;28;20034;-86
2021/08/19 08:39:41;;;;;;;8.00;4.00;;;19.80;87.80;;;;;;4996257;28;20023;-86
2021/08/19 08:42:11;;;;;;;10.40;4.00;;;19.80;87.90;;;;;;5000775;28;20033;-85
2021/08/19 08:44:38;;;;;;;7.63;4.10;;;19.80;87.90;;;;;;5008509;28;20034;-84
2021/08/19 08:47:07;;;;;;;10.57;4.28;;;19.80;87.90;;;;;;5006752;28;20026;-84
2021/08/19 08:49:33;;;;;;;5.45;2.70;;;19.80;88.20;;;;;;5007144;28;20112;-85
2021/08/19 08:51:59;;;;;;;8.60;3.08;;;19.80;88.00;;;;;;5001637;28;20038;-85
2021/08/19 08:54:32;;;;;;;5.47;3.38;;;19.80;88.00;;;;;;5009926;28;20029;-84
2021/08/19 08:56:58;;;;;;;6.75;3.67;;;19.80;88.40;;;;;;5003032;28;20057;-85
2021/08/19 08:59:24;;;;;;;7.85;3.83;;;19.80;88.40;;;;;;5008445;28;20026;-85
2021/08/19 09:01:54;;;;;;;8.45;3.83;;;19.80;88.40;;;;;;5005815;28;20060;-84
2021/08/19 09:04:21;;;;;;;7.20;3.17;;;19.80;88.80;;;;;;5007742;28;20038;-84
2021/08/19 09:06:46;;;;;;;7.18;4.40;;;19.80;88.60;;;;;;5010152;28;20116;-86
2021/08/19 09:09:20;;;;;;;14.63;4.38;;;19.90;89.20;;;;;;5008811;28;20121;-85
2021/08/19 09:11:51;;;;;;;7.28;3.67;;;19.90;89.20;;;;;;5006586;28;20022;-84
2021/08/19 09:14:20;;;;;;;7.57;3.92;;;20.00;89.00;;;;;;5001828;28;20036;-84
2021/08/19 09:16:47;;;;;;;11.48;4.60;;;20.00;89.00;;;;;;5006036;28;20048;-83
2021/08/19 09:19:15;;;;;;;10.07;4.10;;;20.00;89.60;;;;;;5004671;28;20042;-84
2021/08/19 09:21:54;;;;;;;8.75;4.97;;;20.00;89.60;;;;;;5009182;28;20045;-88
2021/08/19 09:24:25;;;;;;;8.05;4.38;;;20.10;90.00;;;;;;5009032;28;20069;-87
2021/08/19 09:26:53;;;;;;;8.93;5.03;;;20.10;90.10;;;;;;5007462;28;20033;-82
2021/08/19 09:29:24;;;;;;;10.15;4.80;;;20.20;90.30;;;;;;5013039;28;20535;-83
2021/08/19 09:31:52;;;;;;;7.65;4.95;;;20.30;90.30;;;;;;5009760;28;20061;-84
2021/08/19 09:34:19;;;;;;;14.90;5.25;;;20.40;90.30;;;;;;5010245;28;20038;-85
2021/08/19 09:36:44;;;;;;;9.52;3.85;;;20.40;90.40;;;;;;5012752;28;20045;-84
2021/08/19 09:39:10;;;;;;;7.85;4.70;;;20.50;89.60;;;;;;4999227;28;20037;-85
2021/08/19 09:41:53;;;;;;;10.65;4.80;;;20.50;89.70;;;;;;5009783;28;20029;-84
2021/08/19 09:44:42;;;;;;;6.97;3.13;;;20.60;89.10;;;;;;5010148;28;20034;-84
2021/08/19 09:47:28;;;;;;;9.18;4.13;;;20.60;88.40;;;;;;5003895;28;20041;-84
2021/08/19 09:50:13;;;;;;;9.27;4.13;;;20.60;87.90;;;;;;5009268;28;20065;-90
2021/08/19 09:52:40;;;;;;;6.97;3.65;;;20.60;88.10;;;;;;5010638;28;20030;-87
2021/08/19 09:55:31;;;;;;;5.90;3.80;;;20.70;88.20;;;;;;5017524;28;20109;-87
2021/08/19 09:58:00;;;;;;;10.60;4.95;;;20.70;88.00;;;;;;5007206;28;20084;-88
2021/08/19 10:00:45;;;;;;;8.00;3.47;;;20.80;88.30;;;;;;5011651;28;20018;-90
2021/08/19 10:03:13;;;;;;;10.10;4.32;;;20.80;87.90;;;;;;5013448;28;20045;-82
2021/08/19 10:05:39;;;;;;;6.93;3.75;;;20.90;87.60;;;;;;5010996;28;20076;-83
2021/08/19 10:08:08;;;;;;;7.90;4.00;;;21.00;87.60;;;;;;5007104;28;20390;-87
2021/08/19 10:10:35;;;;;;;9.23;3.75;;;21.10;87.20;;;;;;5004292;28;20029;-84
2021/08/19 10:13:02;;;;;;;9.35;4.38;;;21.10;87.10;;;;;;5013432;28;20531;-82
2021/08/19 10:15:29;;;;;;;7.50;4.28;;;21.10;86.90;;;;;;5009746;28;20052;-85
2021/08/19 10:17:58;;;;;;;10.40;4.22;;;21.10;86.80;;;;;;5009317;28;20030;-86
2021/08/19 10:20:36;;;;;;;12.02;4.60;;;21.20;87.00;;;;;;5012135;28;20030;-85
2021/08/19 10:23:03;;;;;;;9.55;4.82;;;21.10;86.70;;;;;;5012058;28;20030;-84
2021/08/19 10:25:28;;;;;;;12.00;4.70;;;21.20;86.60;;;;;;5003344;28;20047;-84
2021/08/19 10:28:14;;;;;;;9.60;4.57;;;21.20;86.80;;;;;;5003051;28;20515;-86
2021/08/19 10:30:49;;;;;;;11.48;4.55;;;21.20;86.60;;;;;;5002765;28;20030;-84
2021/08/19 10:33:38;;;;;;;8.43;4.60;;;21.20;86.00;;;;;;5002182;28;20026;-88
2021/08/19 10:36:09;;;;;;;14.82;5.40;;;21.20;85.90;;;;;;5011363;28;20046;-83
2021/08/19 10:38:35;;;;;;;9.10;4.72;;;21.20;85.20;;;;;;5007193;28;20033;-84
2021/08/19 10:41:01;;;;;;;9.52;4.55;;;21.20;85.10;;;;;;4998749;28;20029;-87
2021/08/19 10:43:32;;;;;;;7.15;4.30;;;21.20;84.70;;;;;;5007926;28;20018;-84
2021/08/19 10:46:10;;;;;;;13.45;5.30;;;21.20;84.70;;;;;;5000331;28;20106;-86
2021/08/19 10:48:46;;;;;;;11.57;5.30;;;21.20;84.40;;;;;;5007365;28;20034;-91
2021/08/19 10:51:12;;;;;;;9.68;4.10;;;21.20;84.60;;;;;;5001171;28;20040;-88
2021/08/19 10:53:38;;;;;;;12.70;4.68;;;21.20;84.20;;;;;;5009187;28;20064;-78
2021/08/19 10:56:07;;;;;;;9.65;4.47;;;21.30;84.10;;;;;;5005464;28;20046;-86
2021/08/19 10:58:35;;;;;;;8.63;4.47;;;21.20;83.90;;;;;;5003562;28;20026;-83
2021/08/19 11:01:22;;;;;;;8.20;3.92;;;21.20;83.50;;;;;;5008559;28;20037;-85
2021/08/19 11:03:49;;;;;;;9.82;4.28;;;21.20;83.30;;;;;;5004815;28;20034;-83
2021/08/19 11:06:23;;;;;;;9.90;4.63;;;21.30;83.70;;;;;;5005444;28;20121;-87
2021/08/19 11:08:58;;;;;;;9.82;4.43;;;21.20;83.50;;;;;;5002742;28;20098;-80
2021/08/19 11:11:38;;;;;;;10.82;4.28;;;21.30;83.30;;;;;;4993089;28;20393;-82
2021/08/19 11:14:13;;;;;;;8.05;3.53;;;21.30;82.80;;;;;;5000131;28;20041;-89
2021/08/19 11:16:41;;;;;;;12.23;3.45;;;21.30;82.90;;;;;;5021793;28;20042;-81
2021/08/19 11:19:11;;;;;;;10.93;4.63;;;21.40;82.40;;;;;;5009139;28;20032;-76
2021/08/19 11:21:38;;;;;;;9.95;4.32;;;21.40;82.30;;;;;;5005374;28;20049;-76
2021/08/19 11:24:06;;;;;;;10.30;4.18;;;21.40;82.40;;;;;;4999328;28;20397;-87
2021/08/19 11:26:32;;;;;;;13.93;4.55;;;21.40;82.20;;;;;;5000885;28;20035;-86
2021/08/19 11:28:57;;;;;;;11.93;4.75;;;21.40;82.00;;;;;;5000262;28;20018;-87
2021/08/19 11:31:25;;;;;;;8.27;3.45;;;21.50;81.80;;;;;;5001468;28;20478;-78
2021/08/19 11:34:08;;;;;;;14.80;4.47;;;21.50;81.10;;;;;;5005266;28;20026;-75
2021/08/19 11:36:35;;;;;;;9.73;4.68;;;21.50;80.50;;;;;;4996458;28;20551;-75
2021/08/19 11:39:06;;;;;;;13.82;4.63;;;21.60;79.70;;;;;;5006330;28;20081;-81
2021/08/19 11:41:32;;;;;;;8.45;4.40;;;21.60;78.80;;;;;;5013652;28;20802;-82
2021/08/19 11:44:00;;;;;;;6.25;3.47;;;21.60;78.30;;;;;;5012675;28;20079;-77
2021/08/19 11:46:29;;;;;;;9.70;4.13;;;21.70;78.30;;;;;;5008239;28;20022;-75
2021/08/19 11:49:08;;;;;;;5.88;3.50;;;21.70;78.80;;;;;;5015858;28;20036;-87
2021/08/19 11:51:36;;;;;;;6.68;4.22;;;21.70;78.10;;;;;;5015551;28;20049;-87
2021/08/19 11:54:07;;;;;;;7.60;3.58;;;21.80;77.30;;;;;;5004440;28;20124;-86
2021/08/19 11:56:38;;;;;;;7.82;3.67;;;21.80;77.90;;;;;;5023152;28;20046;-79
2021/08/19 11:59:09;;;;;;;16.52;4.10;;;21.80;78.50;;;;;;5004298;28;20097;-88
2021/08/19 12:01:36;;;;;;;8.68;4.35;;;21.80;78.30;;;;;;5015888;28;20042;-86
2021/08/19 12:04:08;;;;;;;10.93;3.90;;;21.80;78.60;;;;;;5010029;28;20506;-93
2021/08/19 12:06:34;;;;;;;9.20;3.70;;;21.80;78.40;;;;;;5016498;28;20040;-86
2021/08/19 12:09:08;;;;;;;10.50;4.10;;;21.90;78.90;;;;;;5019886;28;20112;-84
2021/08/19 12:11:42;;;;;;;10.32;4.28;;;21.90;78.50;;;;;;5010352;28;20066;-89
2021/08/19 12:14:11;;;;;;;11.57;4.45;;;21.90;78.70;;;;;;5004433;28;20053;-85
2021/08/19 12:16:45;;;;;;;9.50;4.60;;;21.90;78.30;;;;;;5011775;28;20501;-84
2021/08/19 12:19:17;;;;;;;11.55;3.60;;;21.90;78.60;;;;;;5011919;28;20033;-78
2021/08/19 12:21:54;;;;;;;9.25;3.75;;;22.00;78.90;;;;;;5008611;28;20525;-77
2021/08/19 12:24:33;;;;;;;9.38;4.03;;;21.90;78.90;;;;;;5006192;28;20084;-77
2021/08/19 12:27:16;;;;;;;13.00;4.28;;;21.90;79.20;;;;;;5002434;28;20033;-77
2021/08/19 12:29:47;;;;;;;14.35;4.68;;;22.00;79.40;;;;;;5006902;28;20028;-77
2021/08/19 12:32:27;;;;;;;11.95;4.05;;;22.00;79.50;;;;;;5010748;28;20046;-77
2021/08/19 12:34:58;;;;;;;11.07;4.80;;;22.00;79.50;;;;;;5003121;28;20026;-78
2021/08/19 12:37:28;;;;;;;9.07;3.88;;;22.10;79.40;;;;;;5008701;28;20046;-77
2021/08/19 12:39:54;;;;;;;15.43;4.78;;;22.00;79.90;;;;;;5008322;28;20057;-77
2021/08/19 12:42:32;;;;;;;14.45;5.28;;;22.10;79.40;;;;;;5012038;28;20041;-77
2021/08/19 12:45:10;;;;;;;12.13;3.85;;;22.10;78.90;;;;;;5002756;28;20053;-77
2021/08/19 12:47:43;;;;;;;13.55;4.85;;;22.10;79.10;;;;;;5006647;28;20037;-78